Huvudsida
METAR-TAF:

METAR-TAF

Flygplatser :

Umeå, Sverige

Umeå Airport

latitud: 63-48N, longitud: 020-17E, höjd: 7 m

Aktuellt väderrapport

Denna rapport gjordes för 26 minuter sedan, klockan 10:20 UTC
Vind 10 kt från ost/sydost
Temperatur -6°C
Fuktighet 79%
Tryck 1000 hPa
Sikt 10 km eller mer
Spridda moln på en höjd av 2500 ft
Mulet på en höjd av 4000 ft
lätt snö

METAR: ESNU 171020Z 12010KT 9999 -SN SCT025 OVC040 M06/M09 Q1000 R14/75//50

Tid: 11:46 (10:46 UTC)

Väderprognos

Denna rapport gjordes för 2 timmar och 16 minuter sedan, klockan 08:30 UTC
Prognos gäller från 17 kl. 09 UTC till 17 kl. 18 UTC
Vind 10 kt från sydost
Sikt 10 km eller mer
Mulet på en höjd av 2500 ft
Sannolikhet 40%
från 17 kl. 09 UTC till 17 kl. 18 UTC
Sikt: 2000 m
Brutna moln på en höjd av 800 ft
snö

TAF: ESNU 170830Z 1709/1718 14010KT 9999 OVC025 PROB40 1709/1718 2000 SN BKN008

Aktuella väderrapporter och prognoser från 4000 flygplatser (METAR- och TAF-rapporter).

De tillgängliga stationerna syns som gula och röda prickar på kartan.

För musen över prickarna för att se namnen på stationerna.

Klicka sedan för att få väderrapporter och prognoser.

För att ändra kartan: Klicka på de gröna knapparna med ett svart kors på för att zooma in; den gröna knappen med ett streck på för att zooma ut; eller på de gröna pilarna för angränsande kartor.


METAR-TAF: